Kasagimaru — JJ3905 — position and weather

sailwx.info

Track history (hours):
 
Tides and Currents Weather Stations Pressure Air Temp Water Temp Dewpoint Dewpoint Depression Visibility Wind Speed Wind Dir Waves Ship Positions

Kasagimaru

Last reported at 2017-Aug-22 19:53 UTC. Time now 2017-Aug-22 20:45 UTC.
Position N 34°33' E 135°27'.

Length 42 m; draft 3.5 m.

Type: Tug. MMSI: 431300268.

Date/timePositionNaut miles runAvg speedWind from/ knotsBaromVisibWave heightAir tempDewpointWater temp
2017-Aug-22 19:53N 34°33' E 135°27'0 0.0
2017-Aug-22 19:23N 34°33' E 135°27'0 0.0
2017-Aug-22 14:53N 34°33' E 135°27'0 0.0
2017-Aug-22 13:23N 34°33' E 135°27'0 0.0
2017-Aug-22 09:59N 34°33' E 135°27'0 0.0
2017-Aug-22 09:17N 34°33' E 135°27'0 0.0
2017-Aug-22 08:17N 34°33' E 135°27'0 0.0
2017-Aug-22 07:59N 34°33' E 135°27'0 0.0
2017-Aug-22 07:23N 34°33' E 135°27'0 0.0
2017-Aug-22 06:53N 34°33' E 135°27'0 1.1
2017-Aug-22 06:29N 34°33' E 135°26'5 9.9
2017-Aug-22 06:00N 34°37' E 135°23'1 2.0
2017-Aug-22 05:18N 34°39' E 135°24'0 0.2
2017-Aug-22 05:00N 34°39' E 135°24'2 4.6
2017-Aug-22 04:30N 34°36' E 135°23'4 8.7
2017-Aug-22 04:00N 34°33' E 135°27'0 0.1
2017-Aug-22 03:05N 34°33' E 135°27'0 0.0
2017-Aug-22 02:51N 34°33' E 135°27'4 9.6
2017-Aug-22 02:28N 34°33' E 135°22'2 3.3
2017-Aug-22 01:59N 34°33' E 135°24'0 0.8
2017-Aug-22 01:30N 34°33' E 135°24'0 0.2
2017-Aug-22 00:49N 34°33' E 135°24'0 0.6
2017-Aug-22 00:28N 34°33' E 135°24'0 0.4
2017-Aug-22 00:01N 34°33' E 135°24'0 0.2
2017-Aug-21 23:30N 34°33' E 135°24'0 0.1
2017-Aug-21 22:53N 34°33' E 135°24'0 0.2
2017-Aug-21 22:30N 34°33' E 135°24'0 0.1
2017-Aug-21 22:00N 34°33' E 135°24'0 0.0
2017-Aug-21 21:29N 34°33' E 135°24'0 0.1
2017-Aug-21 20:58N 34°33' E 135°24'0 0.1
2017-Aug-21 20:30N 34°33' E 135°24'0 0.0
2017-Aug-21 20:00N 34°33' E 135°24'0 0.1
2017-Aug-21 19:30N 34°33' E 135°24'0 0.1
2017-Aug-21 18:59N 34°33' E 135°24'0 0.1
2017-Aug-21 18:29N 34°33' E 135°24'0 0.1
2017-Aug-21 18:00N 34°33' E 135°24'0 0.1
2017-Aug-21 17:30N 34°33' E 135°24'0 0.1
2017-Aug-21 17:00N 34°33' E 135°24'0 0.1
2017-Aug-21 16:30N 34°33' E 135°24'0 0.0
2017-Aug-21 16:00N 34°33' E 135°24'0 0.1
2017-Aug-21 15:30N 34°33' E 135°24'0 0.1
2017-Aug-21 15:00N 34°33' E 135°24'0 0.2
2017-Aug-21 14:30N 34°33' E 135°24'0 0.2
2017-Aug-21 13:59N 34°33' E 135°24'0 0.2
2017-Aug-21 13:29N 34°33' E 135°24'0 0.1
2017-Aug-21 13:00N 34°33' E 135°24'0 0.1
2017-Aug-21 12:30N 34°33' E 135°24'0 0.1
2017-Aug-21 12:00N 34°33' E 135°24'0 0.0
2017-Aug-21 11:28N 34°33' E 135°24'0 0.2
2017-Aug-21 11:00N 34°33' E 135°24'0 0.0
2017-Aug-21 10:31N 34°33' E 135°24'0 0.1
2017-Aug-21 10:00N 34°33' E 135°24'0 0.1
2017-Aug-21 09:30N 34°33' E 135°24'0 0.0
2017-Aug-21 08:56N 34°33' E 135°24'0 0.0
2017-Aug-21 08:29N 34°33' E 135°24'0 0.1
2017-Aug-21 08:00N 34°33' E 135°24'0 0.1
2017-Aug-21 07:30N 34°33' E 135°24'0 0.2
2017-Aug-21 07:00N 34°33' E 135°24'0 0.2
2017-Aug-21 06:30N 34°33' E 135°24'0 0.0
2017-Aug-21 06:00N 34°33' E 135°24'0 0.0
2017-Aug-21 05:30N 34°33' E 135°24'0 0.0
2017-Aug-21 05:00N 34°33' E 135°24'0 0.1
2017-Aug-21 04:30N 34°33' E 135°24'0 0.2
2017-Aug-21 04:00N 34°33' E 135°24'0 0.1
2017-Aug-21 03:30N 34°33' E 135°24'0 0.2
2017-Aug-21 03:00N 34°33' E 135°24'0 0.3
2017-Aug-21 02:29N 34°33' E 135°24'0 0.2
2017-Aug-21 02:00N 34°33' E 135°24'0 0.4
2017-Aug-21 01:30N 34°33' E 135°24'3 3.5
2017-Aug-21 00:36N 34°33' E 135°20'0 3.4
2017-Aug-21 00:30N 34°33' E 135°20'3 6.5
2017-Aug-21 00:00N 34°31' E 135°17'2 3.0
2017-Aug-20 23:30N 34°32' E 135°18'4 8.0
2017-Aug-20 23:00N 34°33' E 135°23'3 0.2
2017-Aug-20 08:21N 34°33' E 135°27'2 6.7
2017-Aug-20 08:01N 34°34' E 135°24'5 9.9
2017-Aug-20 07:30N 34°39' E 135°25'0 0.7
2017-Aug-20 07:00N 34°39' E 135°25'1 1.8
2017-Aug-20 06:30N 34°38' E 135°24'5 8.5
2017-Aug-20 05:55N 34°33' E 135°24'2 2.4
2017-Aug-20 05:07N 34°33' E 135°27'0 0.0
2017-Aug-20 04:49N 34°33' E 135°27'0 0.0
2017-Aug-20 03:43N 34°33' E 135°27'0 0.0
2017-Aug-20 03:19N 34°33' E 135°27'0 0.0
2017-Aug-20 02:55N 34°33' E 135°27'0 0.0
2017-Aug-20 02:25N 34°33' E 135°27'0 0.0
2017-Aug-19 22:49N 34°33' E 135°27'0 0.0
2017-Aug-19 06:30N 34°33' E 135°27'2 2.7
2017-Aug-19 05:50N 34°33' E 135°24'3 7.6
2017-Aug-19 05:29N 34°31' E 135°23'0 0.2
2017-Aug-19 05:00N 34°31' E 135°24'0 0.7
2017-Aug-19 04:30N 34°31' E 135°24'0 0.0
2017-Aug-18 22:46N 34°31' E 135°24'1 1.3
2017-Aug-18 22:20N 34°31' E 135°23'2 3.5
2017-Aug-18 21:52N 34°32' E 135°22'1 3.7
2017-Aug-18 21:30N 34°33' E 135°24'2 0.1
2017-Aug-18 05:21N 34°33' E 135°26'3 1.1
2017-Aug-18 02:53N 34°31' E 135°24'2 5.8
2017-Aug-18 02:30N 34°34' E 135°23'1 1.0
2017-Aug-18 01:38N 34°34' E 135°24'0 0.8
2017-Aug-18 01:30N 34°34' E 135°24'2 1.4
2017-Aug-17 23:58N 34°33' E 135°27'0 0.0
2017-Aug-17 23:29N 34°33' E 135°27'0 0.0
2017-Aug-17 22:57N 34°33' E 135°27'0 0.0
2017-Aug-17 22:17N 34°33' E 135°27'0 0.0
2017-Aug-17 21:59N 34°33' E 135°27'0 0.0
2017-Aug-17 21:30N 34°33' E 135°27'0 0.0
2017-Aug-17 20:45N 34°33' E 135°27'5 0.3
2017-Aug-17 00:32N 34°33' E 135°20'0 1.0
2017-Aug-17 00:20N 34°33' E 135°20'0 0.6
2017-Aug-17 00:00N 34°33' E 135°20'0 0.2
2017-Aug-16 23:30N 34°33' E 135°20'3 3.4
2017-Aug-16 22:35N 34°31' E 135°23'0 0.3
2017-Aug-16 22:19N 34°31' E 135°23'1 1.7
2017-Aug-16 21:58N 34°31' E 135°23'2 3.4
2017-Aug-16 21:28N 34°32' E 135°22'1 2.3
2017-Aug-16 21:00N 34°33' E 135°23'3 3.9
2017-Aug-16 20:19N 34°33' E 135°27'0 0.0
2017-Aug-16 09:35N 34°33' E 135°27'1 7.1
2017-Aug-16 09:30N 34°33' E 135°26'610.8
2017-Aug-16 08:59N 34°30' E 135°21'612.0
2017-Aug-16 08:30N 34°25' E 135°17'612.0
2017-Aug-16 07:59N 34°22' E 135°10'612.1
2017-Aug-16 07:30N 34°19' E 135°04'611.8
2017-Aug-16 06:59N 34°14' E 135°00'2 0.3
2017-Aug-16 01:59N 34°12' E 134°59'813.6
2017-Aug-16 01:26N 34°19' E 135°04'614.2
2017-Aug-16 01:00N 34°22' E 135°10'714.4
2017-Aug-16 00:30N 34°26' E 135°17'714.3
2017-Aug-16 00:00N 34°32' E 135°23'3 1.7
2017-Aug-15 22:03N 34°33' E 135°27'0 0.0
2017-Aug-15 21:51N 34°33' E 135°27'0 0.0
2017-Aug-15 21:27N 34°33' E 135°27'0 0.0
2017-Aug-15 18:39N 34°33' E 135°27'0 0.0
2017-Aug-15 18:15N 34°33' E 135°27'0 0.0
2017-Aug-15 17:21N 34°33' E 135°27'0 0.0
2017-Aug-15 16:45N 34°33' E 135°27'0 0.0
2017-Aug-15 16:27N 34°33' E 135°27'0 0.0
2017-Aug-15 15:57N 34°33' E 135°27'0 0.0
2017-Aug-15 15:21N 34°33' E 135°27'2 0.2
2017-Aug-15 07:43N 34°33' E 135°25'312.4
2017-Aug-15 07:30N 34°36' E 135°23'2 4.1
2017-Aug-15 07:00N 34°37' E 135°25'0 0.1
2017-Aug-15 06:29N 34°38' E 135°25'0 0.5
2017-Aug-15 06:01N 34°38' E 135°25'611.1
2017-Aug-15 05:31N 34°35' E 135°18'713.2
2017-Aug-15 05:00N 34°35' E 135°10'8 1.2
2017-Aug-14 22:21N 34°37' E 135°01'411.3
2017-Aug-14 22:00N 34°36' E 135°05'3 5.5
2017-Aug-14 21:30N 34°35' E 135°09'5 9.8
2017-Aug-14 21:00N 34°30' E 135°07'1612.2
2017-Aug-14 19:40N 34°15' E 134°59'313.0
2017-Aug-14 19:28N 34°12' E 135°00'2 3.6
2017-Aug-14 19:00N 34°11' E 135°02'611.5
2017-Aug-14 18:30N 34°13' E 135°08'1 0.5
2017-Aug-14 17:27N 34°13' E 135°09'0 0.0
2017-Aug-14 17:00N 34°13' E 135°09'0 0.0
2017-Aug-14 16:00N 34°13' E 135°09'0 0.0
2017-Aug-14 15:12N 34°13' E 135°09'0 0.0
2017-Aug-14 13:21N 34°13' E 135°09'0 0.0
2017-Aug-14 13:00N 34°13' E 135°09'0 0.0
2017-Aug-14 11:51N 34°13' E 135°09'0 0.0
2017-Aug-14 11:30N 34°13' E 135°09'0 0.0
2017-Aug-14 11:00N 34°13' E 135°09'0 0.0
2017-Aug-14 10:30N 34°13' E 135°09'0 0.0
2017-Aug-14 09:18N 34°13' E 135°09'0 0.0
2017-Aug-14 08:57N 34°13' E 135°09'0 0.0
2017-Aug-14 08:30N 34°13' E 135°09'2 3.2
2017-Aug-14 08:00N 34°13' E 135°07'19 0.7
2017-Aug-13 03:04N 34°32' E 135°05'3 7.5
2017-Aug-13 02:42N 34°35' E 135°05'2 8.5
2017-Aug-13 02:30N 34°36' E 135°03'  
Track history (hours):
 
Tides and Currents Weather Stations Pressure Air Temp Water Temp Dewpoint Dewpoint Depression Visibility Wind Speed Wind Dir Waves Ship Positions

Kasagimaru

Last reported at 2017-Aug-22 19:53 UTC. Time now 2017-Aug-22 20:45 UTC.
Position N 34°33' E 135°27'.

Length 42 m; draft 3.5 m.

Type: Tug. MMSI: 431300268.

Date/timePositionNaut miles runAvg speedWind from/ knotsBaromVisibWave heightAir tempDewpointWater temp
2017-Aug-22 19:53N 34°33' E 135°27'0 0.0
2017-Aug-22 19:23N 34°33' E 135°27'0 0.0
2017-Aug-22 14:53N 34°33' E 135°27'0 0.0
2017-Aug-22 13:23N 34°33' E 135°27'0 0.0
2017-Aug-22 09:59N 34°33' E 135°27'0 0.0
2017-Aug-22 09:17N 34°33' E 135°27'0 0.0
2017-Aug-22 08:17N 34°33' E 135°27'0 0.0
2017-Aug-22 07:59N 34°33' E 135°27'0 0.0
2017-Aug-22 07:23N 34°33' E 135°27'0 0.0
2017-Aug-22 06:53N 34°33' E 135°27'0 1.1
2017-Aug-22 06:29N 34°33' E 135°26'5 9.9
2017-Aug-22 06:00N 34°37' E 135°23'1 2.0
2017-Aug-22 05:18N 34°39' E 135°24'0 0.2
2017-Aug-22 05:00N 34°39' E 135°24'2 4.6
2017-Aug-22 04:30N 34°36' E 135°23'4 8.7
2017-Aug-22 04:00N 34°33' E 135°27'0 0.1
2017-Aug-22 03:05N 34°33' E 135°27'0 0.0
2017-Aug-22 02:51N 34°33' E 135°27'4 9.6
2017-Aug-22 02:28N 34°33' E 135°22'2 3.3
2017-Aug-22 01:59N 34°33' E 135°24'0 0.8
2017-Aug-22 01:30N 34°33' E 135°24'0 0.2
2017-Aug-22 00:49N 34°33' E 135°24'0 0.6
2017-Aug-22 00:28N 34°33' E 135°24'0 0.4
2017-Aug-22 00:01N 34°33' E 135°24'0 0.2
2017-Aug-21 23:30N 34°33' E 135°24'0 0.1
2017-Aug-21 22:53N 34°33' E 135°24'0 0.2
2017-Aug-21 22:30N 34°33' E 135°24'0 0.1
2017-Aug-21 22:00N 34°33' E 135°24'0 0.0
2017-Aug-21 21:29N 34°33' E 135°24'0 0.1
2017-Aug-21 20:58N 34°33' E 135°24'0 0.1
2017-Aug-21 20:30N 34°33' E 135°24'0 0.0
2017-Aug-21 20:00N 34°33' E 135°24'0 0.1
2017-Aug-21 19:30N 34°33' E 135°24'0 0.1
2017-Aug-21 18:59N 34°33' E 135°24'0 0.1
2017-Aug-21 18:29N 34°33' E 135°24'0 0.1
2017-Aug-21 18:00N 34°33' E 135°24'0 0.1
2017-Aug-21 17:30N 34°33' E 135°24'0 0.1
2017-Aug-21 17:00N 34°33' E 135°24'0 0.1
2017-Aug-21 16:30N 34°33' E 135°24'0 0.0
2017-Aug-21 16:00N 34°33' E 135°24'0 0.1
2017-Aug-21 15:30N 34°33' E 135°24'0 0.1
2017-Aug-21 15:00N 34°33' E 135°24'0 0.2
2017-Aug-21 14:30N 34°33' E 135°24'0 0.2
2017-Aug-21 13:59N 34°33' E 135°24'0 0.2
2017-Aug-21 13:29N 34°33' E 135°24'0 0.1
2017-Aug-21 13:00N 34°33' E 135°24'0 0.1
2017-Aug-21 12:30N 34°33' E 135°24'0 0.1
2017-Aug-21 12:00N 34°33' E 135°24'0 0.0
2017-Aug-21 11:28N 34°33' E 135°24'0 0.2
2017-Aug-21 11:00N 34°33' E 135°24'0 0.0
2017-Aug-21 10:31N 34°33' E 135°24'0 0.1
2017-Aug-21 10:00N 34°33' E 135°24'0 0.1
2017-Aug-21 09:30N 34°33' E 135°24'0 0.0
2017-Aug-21 08:56N 34°33' E 135°24'0 0.0
2017-Aug-21 08:29N 34°33' E 135°24'0 0.1
2017-Aug-21 08:00N 34°33' E 135°24'0 0.1
2017-Aug-21 07:30N 34°33' E 135°24'0 0.2
2017-Aug-21 07:00N 34°33' E 135°24'0 0.2
2017-Aug-21 06:30N 34°33' E 135°24'0 0.0
2017-Aug-21 06:00N 34°33' E 135°24'0 0.0
2017-Aug-21 05:30N 34°33' E 135°24'0 0.0
2017-Aug-21 05:00N 34°33' E 135°24'0 0.1
2017-Aug-21 04:30N 34°33' E 135°24'0 0.2
2017-Aug-21 04:00N 34°33' E 135°24'0 0.1
2017-Aug-21 03:30N 34°33' E 135°24'0 0.2
2017-Aug-21 03:00N 34°33' E 135°24'0 0.3
2017-Aug-21 02:29N 34°33' E 135°24'0 0.2
2017-Aug-21 02:00N 34°33' E 135°24'0 0.4
2017-Aug-21 01:30N 34°33' E 135°24'3 3.5
2017-Aug-21 00:36N 34°33' E 135°20'0 3.4
2017-Aug-21 00:30N 34°33' E 135°20'3 6.5
2017-Aug-21 00:00N 34°31' E 135°17'2 3.0
2017-Aug-20 23:30N 34°32' E 135°18'4 8.0
2017-Aug-20 23:00N 34°33' E 135°23'3 0.2
2017-Aug-20 08:21N 34°33' E 135°27'2 6.7
2017-Aug-20 08:01N 34°34' E 135°24'5 9.9
2017-Aug-20 07:30N 34°39' E 135°25'0 0.7
2017-Aug-20 07:00N 34°39' E 135°25'1 1.8
2017-Aug-20 06:30N 34°38' E 135°24'5 8.5
2017-Aug-20 05:55N 34°33' E 135°24'2 2.4
2017-Aug-20 05:07N 34°33' E 135°27'0 0.0
2017-Aug-20 04:49N 34°33' E 135°27'0 0.0
2017-Aug-20 03:43N 34°33' E 135°27'0 0.0
2017-Aug-20 03:19N 34°33' E 135°27'0 0.0
2017-Aug-20 02:55N 34°33' E 135°27'0 0.0
2017-Aug-20 02:25N 34°33' E 135°27'0 0.0
2017-Aug-19 22:49N 34°33' E 135°27'0 0.0
2017-Aug-19 06:30N 34°33' E 135°27'2 2.7
2017-Aug-19 05:50N 34°33' E 135°24'3 7.6
2017-Aug-19 05:29N 34°31' E 135°23'0 0.2
2017-Aug-19 05:00N 34°31' E 135°24'0 0.7
2017-Aug-19 04:30N 34°31' E 135°24'0 0.0
2017-Aug-18 22:46N 34°31' E 135°24'1 1.3
2017-Aug-18 22:20N 34°31' E 135°23'2 3.5
2017-Aug-18 21:52N 34°32' E 135°22'1 3.7
2017-Aug-18 21:30N 34°33' E 135°24'2 0.1
2017-Aug-18 05:21N 34°33' E 135°26'3 1.1
2017-Aug-18 02:53N 34°31' E 135°24'2 5.8
2017-Aug-18 02:30N 34°34' E 135°23'1 1.0
2017-Aug-18 01:38N 34°34' E 135°24'0 0.8
2017-Aug-18 01:30N 34°34' E 135°24'2 1.4
2017-Aug-17 23:58N 34°33' E 135°27'0 0.0
2017-Aug-17 23:29N 34°33' E 135°27'0 0.0
2017-Aug-17 22:57N 34°33' E 135°27'0 0.0
2017-Aug-17 22:17N 34°33' E 135°27'0 0.0
2017-Aug-17 21:59N 34°33' E 135°27'0 0.0
2017-Aug-17 21:30N 34°33' E 135°27'0 0.0
2017-Aug-17 20:45N 34°33' E 135°27'5 0.3
2017-Aug-17 00:32N 34°33' E 135°20'0 1.0
2017-Aug-17 00:20N 34°33' E 135°20'0 0.6
2017-Aug-17 00:00N 34°33' E 135°20'0 0.2
2017-Aug-16 23:30N 34°33' E 135°20'3 3.4
2017-Aug-16 22:35N 34°31' E 135°23'0 0.3
2017-Aug-16 22:19N 34°31' E 135°23'1 1.7
2017-Aug-16 21:58N 34°31' E 135°23'2 3.4
2017-Aug-16 21:28N 34°32' E 135°22'1 2.3
2017-Aug-16 21:00N 34°33' E 135°23'3 3.9
2017-Aug-16 20:19N 34°33' E 135°27'0 0.0
2017-Aug-16 09:35N 34°33' E 135°27'1 7.1
2017-Aug-16 09:30N 34°33' E 135°26'610.8
2017-Aug-16 08:59N 34°30' E 135°21'612.0
2017-Aug-16 08:30N 34°25' E 135°17'612.0
2017-Aug-16 07:59N 34°22' E 135°10'612.1
2017-Aug-16 07:30N 34°19' E 135°04'611.8
2017-Aug-16 06:59N 34°14' E 135°00'2 0.3
2017-Aug-16 01:59N 34°12' E 134°59'813.6
2017-Aug-16 01:26N 34°19' E 135°04'614.2
2017-Aug-16 01:00N 34°22' E 135°10'714.4
2017-Aug-16 00:30N 34°26' E 135°17'714.3
2017-Aug-16 00:00N 34°32' E 135°23'3 1.7
2017-Aug-15 22:03N 34°33' E 135°27'0 0.0
2017-Aug-15 21:51N 34°33' E 135°27'0 0.0
2017-Aug-15 21:27N 34°33' E 135°27'0 0.0
2017-Aug-15 18:39N 34°33' E 135°27'0 0.0
2017-Aug-15 18:15N 34°33' E 135°27'0 0.0
2017-Aug-15 17:21N 34°33' E 135°27'0 0.0
2017-Aug-15 16:45N 34°33' E 135°27'0 0.0
2017-Aug-15 16:27N 34°33' E 135°27'0 0.0
2017-Aug-15 15:57N 34°33' E 135°27'0 0.0
2017-Aug-15 15:21N 34°33' E 135°27'2 0.2
2017-Aug-15 07:43N 34°33' E 135°25'312.4
2017-Aug-15 07:30N 34°36' E 135°23'2 4.1
2017-Aug-15 07:00N 34°37' E 135°25'0 0.1
2017-Aug-15 06:29N 34°38' E 135°25'0 0.5
2017-Aug-15 06:01N 34°38' E 135°25'611.1
2017-Aug-15 05:31N 34°35' E 135°18'713.2
2017-Aug-15 05:00N 34°35' E 135°10'8 1.2
2017-Aug-14 22:21N 34°37' E 135°01'411.3
2017-Aug-14 22:00N 34°36' E 135°05'3 5.5
2017-Aug-14 21:30N 34°35' E 135°09'5 9.8
2017-Aug-14 21:00N 34°30' E 135°07'1612.2
2017-Aug-14 19:40N 34°15' E 134°59'313.0
2017-Aug-14 19:28N 34°12' E 135°00'2 3.6
2017-Aug-14 19:00N 34°11' E 135°02'611.5
2017-Aug-14 18:30N 34°13' E 135°08'1 0.5
2017-Aug-14 17:27N 34°13' E 135°09'0 0.0
2017-Aug-14 17:00N 34°13' E 135°09'0 0.0
2017-Aug-14 16:00N 34°13' E 135°09'0 0.0
2017-Aug-14 15:12N 34°13' E 135°09'0 0.0
2017-Aug-14 13:21N 34°13' E 135°09'0 0.0
2017-Aug-14 13:00N 34°13' E 135°09'0 0.0
2017-Aug-14 11:51N 34°13' E 135°09'0 0.0
2017-Aug-14 11:30N 34°13' E 135°09'0 0.0
2017-Aug-14 11:00N 34°13' E 135°09'0 0.0
2017-Aug-14 10:30N 34°13' E 135°09'0 0.0
2017-Aug-14 09:18N 34°13' E 135°09'0 0.0
2017-Aug-14 08:57N 34°13' E 135°09'0 0.0
2017-Aug-14 08:30N 34°13' E 135°09'2 3.2
2017-Aug-14 08:00N 34°13' E 135°07'19 0.7
2017-Aug-13 03:04N 34°32' E 135°05'3 7.5
2017-Aug-13 02:42N 34°35' E 135°05'2 8.5
2017-Aug-13 02:30N 34°36' E 135°03'  

Dump ship's entire track history